createdAt,value
2022-12-25T12:02:05.297Z,1.70
2022-12-25T12:04:43.108Z,1.10
2022-12-25T12:07:19.102Z,1.50
2022-12-25T12:09:56.392Z,1.80
2022-12-25T12:13:23.659Z,1.60
2022-12-25T12:15:58.710Z,1.00
2022-12-25T12:18:28.170Z,1.10
2022-12-25T12:21:04.770Z,2.20
2022-12-25T12:24:16.338Z,2.10
2022-12-25T12:26:46.512Z,1.40
2022-12-25T12:29:29.657Z,2.60
2022-12-25T12:32:03.540Z,1.30
2022-12-25T12:34:40.826Z,2.80
2022-12-25T12:38:03.594Z,2.90
2022-12-25T12:41:03.382Z,1.90
2022-12-25T12:43:37.477Z,1.80
2022-12-25T12:46:32.277Z,1.20
2022-12-25T12:49:35.036Z,2.30
2022-12-25T12:52:25.226Z,1.40
2022-12-25T12:55:14.997Z,1.40
2022-12-25T12:58:02.806Z,1.60
2022-12-25T13:00:55.841Z,1.80
2022-12-25T13:03:56.214Z,3.90
2022-12-25T13:06:42.321Z,1.40
2022-12-25T13:09:30.280Z,1.40
2022-12-25T13:14:40.102Z,1.70
2022-12-25T13:17:10.385Z,1.40
2022-12-25T13:19:44.873Z,1.50
2022-12-25T13:22:32.087Z,1.40
2022-12-25T13:25:19.410Z,2.50
2022-12-25T13:27:57.929Z,2.20
2022-12-25T13:30:29.402Z,3.80
2022-12-25T13:33:00.233Z,2.50
2022-12-25T13:35:28.479Z,2.30
2022-12-25T13:37:56.754Z,1.40
2022-12-25T13:43:03.064Z,2.20
2022-12-25T13:45:31.727Z,3.70
2022-12-25T13:48:20.126Z,1.70
2022-12-25T13:51:01.395Z,2.10
2022-12-25T13:53:30.931Z,2.40
2022-12-25T13:56:10.079Z,3.60
2022-12-25T13:58:40.799Z,2.20
2022-12-25T14:01:13.476Z,3.20
2022-12-25T14:03:46.183Z,2.40
2022-12-25T14:06:26.981Z,3.30
2022-12-25T14:08:58.361Z,3.00
2022-12-25T14:11:30.728Z,2.80
2022-12-25T14:14:02.648Z,4.60
2022-12-25T14:16:34.393Z,2.00
2022-12-25T14:19:06.212Z,3.20
2022-12-25T14:21:50.326Z,2.00
2022-12-25T14:24:22.114Z,2.50
2022-12-25T14:27:06.279Z,3.90
2022-12-25T14:29:55.445Z,3.00
2022-12-25T14:32:26.781Z,2.70
2022-12-25T14:35:01.866Z,4.40
2022-12-25T14:37:38.417Z,3.60
2022-12-25T14:40:23.904Z,3.40
2022-12-25T14:43:00.737Z,4.30
2022-12-25T14:45:38.939Z,4.70
2022-12-25T14:48:25.266Z,3.80
2022-12-25T14:51:15.145Z,4.50
2022-12-25T14:53:49.136Z,4.00
2022-12-25T14:56:22.330Z,4.00
2022-12-25T14:58:59.129Z,4.10
2022-12-25T15:01:36.738Z,3.10
2022-12-25T15:04:10.951Z,3.00
2022-12-25T15:07:09.793Z,2.30
2022-12-25T15:09:40.400Z,2.70
2022-12-25T15:12:10.042Z,3.90
2022-12-25T15:14:41.434Z,3.40
2022-12-25T15:17:35.239Z,8.40
2022-12-25T15:23:19.282Z,6.40
2022-12-25T15:25:54.949Z,5.50
2022-12-25T15:28:47.362Z,9.60
2022-12-25T15:31:43.028Z,6.80
2022-12-25T15:34:56.783Z,7.20
2022-12-25T15:40:29.713Z,10.80
2022-12-25T15:43:11.433Z,7.10
2022-12-25T15:45:51.791Z,6.30
2022-12-25T15:48:21.979Z,8.40
2022-12-25T15:50:57.051Z,7.20
2022-12-25T15:53:27.125Z,8.30
2022-12-25T15:55:55.915Z,6.60
2022-12-25T15:58:27.056Z,7.60
2022-12-25T16:01:00.834Z,6.80
2022-12-25T16:03:37.020Z,7.90
2022-12-25T16:06:19.322Z,8.00
2022-12-25T16:08:50.809Z,7.00
2022-12-25T16:11:26.914Z,5.60
2022-12-25T16:14:30.583Z,4.80
2022-12-25T16:18:10.357Z,6.00
2022-12-25T16:20:24.569Z,5.00
2022-12-25T16:23:15.671Z,6.80
2022-12-25T16:25:57.251Z,6.50
2022-12-25T16:28:30.106Z,4.90
2022-12-25T16:31:11.562Z,5.70
2022-12-25T16:34:08.818Z,5.90
2022-12-25T16:37:27.939Z,7.50
2022-12-25T16:39:56.370Z,10.50
2022-12-25T16:42:43.432Z,13.20
2022-12-25T16:45:22.896Z,11.40
2022-12-25T16:51:22.365Z,15.50
2022-12-25T16:54:20.220Z,14.90
2022-12-25T16:57:06.551Z,13.50
2022-12-25T17:02:49.821Z,13.20
2022-12-25T17:05:23.533Z,13.30
2022-12-25T17:08:06.058Z,14.60
2022-12-25T17:10:51.157Z,18.10
2022-12-25T17:13:48.538Z,22.50
2022-12-25T17:16:26.220Z,22.70
2022-12-25T17:19:16.127Z,21.10
2022-12-25T17:22:20.763Z,17.00
2022-12-25T17:25:17.700Z,18.90
2022-12-25T17:27:52.843Z,20.20
2022-12-25T17:30:25.080Z,19.80
2022-12-25T17:33:09.032Z,23.10
2022-12-25T17:35:43.264Z,19.70
2022-12-25T17:38:37.468Z,18.10
2022-12-25T17:41:09.410Z,19.80
2022-12-25T17:43:45.900Z,21.40
2022-12-25T17:46:34.657Z,23.10
2022-12-25T17:49:05.640Z,20.20
2022-12-25T17:51:38.829Z,23.10
2022-12-25T17:54:44.243Z,17.20
2022-12-25T17:57:30.868Z,22.70
2022-12-25T18:00:09.206Z,20.90
2022-12-25T18:02:40.781Z,22.70
2022-12-25T18:11:34.157Z,27.40
2022-12-25T18:14:07.765Z,30.10
2022-12-25T18:16:58.937Z,28.60
2022-12-25T18:19:56.042Z,24.60
2022-12-25T18:22:46.910Z,27.30
2022-12-25T18:25:33.939Z,26.50
2022-12-25T18:28:03.303Z,31.40
2022-12-25T18:30:33.389Z,30.00
2022-12-25T18:33:02.867Z,27.20
2022-12-25T18:35:41.472Z,32.10
2022-12-25T18:40:48.539Z,34.00
2022-12-25T18:43:16.819Z,36.80
2022-12-25T18:46:00.631Z,42.50
2022-12-25T18:48:33.647Z,44.80
2022-12-25T18:51:21.167Z,47.60
2022-12-25T18:54:07.632Z,46.70
2022-12-25T18:56:38.567Z,50.30
2022-12-25T18:59:06.703Z,48.30
2022-12-25T19:01:43.914Z,48.50
2022-12-25T19:06:55.553Z,49.10
2022-12-25T19:09:43.803Z,53.30
2022-12-25T19:12:25.153Z,53.70
2022-12-25T19:14:53.422Z,49.50
2022-12-25T19:17:31.756Z,45.20
2022-12-25T19:20:02.257Z,50.10
2022-12-25T19:22:30.581Z,48.70
2022-12-25T19:25:03.020Z,51.30
2022-12-25T19:28:07.567Z,49.70
2022-12-25T19:30:48.586Z,51.10
2022-12-25T19:33:19.119Z,47.50
2022-12-25T19:35:50.139Z,47.10
2022-12-25T19:38:20.426Z,51.70
2022-12-25T19:43:58.355Z,55.70
2022-12-25T19:46:38.631Z,57.80
2022-12-25T19:49:13.487Z,56.50
2022-12-25T19:51:52.294Z,58.70
2022-12-25T19:54:26.827Z,54.70
2022-12-25T19:57:20.957Z,48.80
2022-12-25T19:59:57.452Z,51.50
2022-12-25T20:02:45.253Z,46.30
2022-12-25T20:05:31.824Z,43.20
2022-12-25T20:08:03.771Z,50.40
2022-12-25T20:10:32.123Z,48.50
2022-12-25T20:13:07.033Z,51.10
2022-12-25T20:15:35.417Z,52.80
2022-12-25T20:18:14.132Z,50.70
2022-12-25T20:20:43.108Z,51.00
2022-12-25T20:23:18.150Z,52.40
2022-12-25T20:25:48.579Z,46.40
2022-12-25T20:28:26.053Z,45.20
2022-12-25T20:31:50.727Z,43.40
2022-12-25T20:34:36.786Z,40.10
2022-12-25T20:37:09.241Z,37.10
2022-12-25T20:39:40.491Z,37.10
2022-12-25T20:42:17.798Z,40.30
2022-12-25T20:44:58.389Z,39.00
2022-12-25T20:47:33.597Z,40.60
2022-12-25T20:50:32.226Z,43.10
2022-12-25T20:53:18.352Z,42.60
2022-12-25T20:55:57.451Z,41.20
2022-12-25T20:58:27.705Z,44.60
2022-12-25T21:01:07.369Z,41.80
2022-12-25T21:03:41.213Z,43.70
2022-12-25T21:06:28.979Z,43.00
2022-12-25T21:09:04.947Z,41.50
2022-12-25T21:11:43.685Z,11.80
2022-12-25T21:14:24.852Z,38.10
2022-12-25T21:17:01.708Z,37.60
2022-12-25T21:19:41.771Z,39.20
2022-12-25T21:22:14.346Z,41.60
2022-12-25T21:24:48.218Z,43.40
2022-12-25T21:27:27.795Z,42.00
2022-12-25T21:33:07.402Z,37.70
2022-12-25T21:35:38.445Z,50.10
2022-12-25T21:38:34.548Z,48.00
2022-12-25T21:41:12.854Z,46.00
2022-12-25T21:43:46.226Z,48.80
2022-12-25T21:46:18.869Z,49.20
2022-12-25T21:48:52.998Z,49.80
2022-12-25T21:51:46.594Z,44.70
2022-12-25T21:54:38.216Z,40.70
2022-12-25T21:57:15.311Z,51.10
2022-12-25T21:59:48.028Z,49.20
2022-12-25T22:02:17.355Z,43.80
2022-12-25T22:04:47.016Z,57.10
2022-12-25T22:07:17.386Z,54.50
2022-12-25T22:09:48.811Z,49.60
2022-12-25T22:12:39.200Z,52.80
2022-12-25T22:15:09.955Z,51.90
2022-12-25T22:18:03.898Z,44.50
2022-12-25T22:20:36.872Z,38.50
2022-12-25T22:23:06.872Z,41.20
2022-12-25T22:25:34.975Z,35.20
2022-12-25T22:28:03.120Z,41.50
2022-12-25T22:30:32.126Z,36.80
2022-12-25T22:33:00.176Z,41.40
2022-12-25T22:35:28.379Z,30.30
2022-12-25T22:37:56.575Z,36.20
2022-12-25T22:40:45.100Z,29.50
2022-12-25T22:43:43.612Z,33.90
2022-12-25T22:46:23.044Z,29.90
2022-12-25T22:48:51.238Z,33.10
2022-12-25T22:51:19.256Z,33.60
2022-12-25T22:54:03.278Z,27.40
2022-12-25T22:56:36.306Z,28.30
2022-12-25T23:01:33.059Z,32.40
2022-12-25T23:04:07.300Z,37.50
2022-12-25T23:06:39.063Z,38.80
2022-12-25T23:09:11.971Z,37.60
2022-12-25T23:11:40.185Z,35.90
2022-12-25T23:14:28.167Z,36.20
2022-12-25T23:16:56.577Z,35.70
2022-12-25T23:19:44.676Z,33.30
2022-12-25T23:22:41.380Z,32.30
2022-12-25T23:25:36.186Z,32.90
2022-12-25T23:28:43.644Z,23.70
2022-12-25T23:31:11.864Z,33.00
2022-12-25T23:33:40.037Z,35.10
2022-12-25T23:36:08.252Z,28.40
2022-12-25T23:38:36.292Z,27.00
2022-12-25T23:41:04.478Z,34.60
2022-12-25T23:43:32.601Z,29.40
2022-12-25T23:46:02.235Z,33.40
2022-12-25T23:48:30.564Z,39.20
2022-12-25T23:51:03.886Z,38.20
2022-12-25T23:53:35.123Z,33.00
2022-12-25T23:56:03.996Z,36.30
2022-12-25T23:58:40.501Z,29.70
